createdAt,value
2018-12-19T00:00:04.629Z,1006.92
2018-12-19T00:01:04.643Z,1006.91
2018-12-19T00:02:04.639Z,1006.90
2018-12-19T00:03:04.595Z,1006.93
2018-12-19T00:04:04.597Z,1006.97
2018-12-19T00:05:04.608Z,1006.91
2018-12-19T00:06:04.565Z,1006.89
2018-12-19T00:07:04.646Z,1006.93
2018-12-19T00:08:04.545Z,1006.92
2018-12-19T00:09:04.531Z,1006.85
2018-12-19T00:10:04.549Z,1006.88
2018-12-19T00:11:04.505Z,1006.82
2018-12-19T00:12:04.552Z,1006.90
2018-12-19T00:13:04.530Z,1006.95
2018-12-19T00:14:04.473Z,1006.85
2018-12-19T00:15:04.499Z,1006.79
2018-12-19T00:16:04.516Z,1006.77
2018-12-19T00:17:04.467Z,1006.72
2018-12-19T00:18:04.456Z,1006.69
2018-12-19T00:19:04.428Z,1006.69
2018-12-19T00:20:04.405Z,1006.68
2018-12-19T00:21:04.412Z,1006.62
2018-12-19T00:22:04.398Z,1006.70
2018-12-19T00:23:04.407Z,1006.74
2018-12-19T00:24:04.395Z,1006.67
2018-12-19T00:25:04.353Z,1006.63
2018-12-19T00:26:04.428Z,1006.56
2018-12-19T00:27:04.362Z,1006.57
2018-12-19T00:28:04.330Z,1006.64
2018-12-19T00:29:04.343Z,1006.57
2018-12-19T00:30:04.305Z,1006.62
2018-12-19T00:31:04.286Z,1006.63
2018-12-19T00:32:04.342Z,1006.64
2018-12-19T00:33:04.266Z,1006.72
2018-12-19T00:34:04.308Z,1006.69
2018-12-19T00:35:04.250Z,1006.67
2018-12-19T00:36:04.232Z,1006.62
2018-12-19T00:37:04.227Z,1006.63
2018-12-19T00:38:04.211Z,1006.70
2018-12-19T00:39:09.487Z,1006.65
2018-12-19T00:40:05.233Z,1006.70
2018-12-19T00:41:04.179Z,1006.74
2018-12-19T00:42:04.163Z,1006.74
2018-12-19T00:43:04.154Z,1006.68
2018-12-19T00:44:04.167Z,1006.71
2018-12-19T00:45:04.136Z,1006.65
2018-12-19T00:46:04.152Z,1006.67
2018-12-19T00:47:04.119Z,1006.63
2018-12-19T00:48:04.096Z,1006.58
2018-12-19T00:49:04.088Z,1006.57
2018-12-19T00:50:04.109Z,1006.43
2018-12-19T00:51:04.147Z,1006.36
2018-12-19T00:52:04.057Z,1006.35
2018-12-19T00:53:04.043Z,1006.37
2018-12-19T00:54:04.036Z,1006.25
2018-12-19T00:55:04.057Z,1006.12
2018-12-19T00:56:04.051Z,1006.13
2018-12-19T00:57:04.005Z,1006.15
2018-12-19T00:58:04.017Z,1006.22
2018-12-19T00:59:03.977Z,1006.17
2018-12-19T01:00:03.972Z,1006.21
2018-12-19T01:01:04.000Z,1006.20
2018-12-19T01:02:03.977Z,1006.20
2018-12-19T01:03:03.957Z,1006.27
2018-12-19T01:04:03.930Z,1006.30
2018-12-19T01:05:03.910Z,1006.28
2018-12-19T01:06:03.902Z,1006.34
2018-12-19T01:07:03.947Z,1006.35
2018-12-19T01:08:03.892Z,1006.40
2018-12-19T01:09:03.906Z,1006.38
2018-12-19T01:10:03.879Z,1006.49
2018-12-19T01:11:03.847Z,1006.53
2018-12-19T01:12:03.840Z,1006.55
2018-12-19T01:13:03.888Z,1006.55
2018-12-19T01:14:04.192Z,1006.56
2018-12-19T01:15:03.804Z,1006.50
2018-12-19T01:16:03.794Z,1006.53
2018-12-19T01:17:03.783Z,1006.47
2018-12-19T01:18:03.808Z,1006.50
2018-12-19T01:19:03.789Z,1006.48
2018-12-19T01:20:03.755Z,1006.43
2018-12-19T01:21:03.768Z,1006.26
2018-12-19T01:22:03.775Z,1006.16
2018-12-19T01:23:03.768Z,1006.29
2018-12-19T01:24:03.709Z,1006.52
2018-12-19T01:25:03.696Z,1006.53
2018-12-19T01:26:03.708Z,1006.51
2018-12-19T01:27:03.672Z,1006.53
2018-12-19T01:28:03.661Z,1006.51
2018-12-19T01:29:03.692Z,1006.58
2018-12-19T01:30:03.705Z,1006.59
2018-12-19T01:31:03.630Z,1006.60
2018-12-19T01:32:03.621Z,1006.62
2018-12-19T01:33:03.631Z,1006.68
2018-12-19T01:34:03.622Z,1006.57
2018-12-19T01:35:03.613Z,1006.60
2018-12-19T01:36:03.596Z,1006.63
2018-12-19T01:37:03.562Z,1006.59
2018-12-19T01:38:03.576Z,1006.59
2018-12-19T01:39:03.542Z,1006.60
2018-12-19T01:40:03.610Z,1006.64
2018-12-19T01:41:03.543Z,1006.63
2018-12-19T01:42:03.556Z,1006.57
2018-12-19T01:43:03.494Z,1006.61
2018-12-19T01:44:03.487Z,1006.59
2018-12-19T01:45:03.516Z,1006.59
2018-12-19T01:46:03.495Z,1006.68
2018-12-19T01:47:03.472Z,1006.65
2018-12-19T01:48:03.438Z,1006.67
2018-12-19T01:49:03.485Z,1006.68
2018-12-19T01:50:03.451Z,1006.61
2018-12-19T01:51:03.406Z,1006.65
2018-12-19T01:52:03.455Z,1006.65
2018-12-19T01:53:03.389Z,1006.65
2018-12-19T01:54:03.415Z,1006.64
2018-12-19T01:55:03.373Z,1006.61
2018-12-19T01:56:03.379Z,1006.60
2018-12-19T01:57:03.359Z,1006.58
2018-12-19T01:58:03.338Z,1006.63
2018-12-19T01:59:03.345Z,1006.61
2018-12-19T02:00:03.339Z,1006.61
2018-12-19T02:01:03.331Z,1006.61
2018-12-19T02:02:03.325Z,1006.66
2018-12-19T02:03:03.277Z,1006.69
2018-12-19T02:04:03.271Z,1006.69
2018-12-19T02:05:03.261Z,1006.67
2018-12-19T02:06:03.259Z,1006.60
2018-12-19T02:07:03.321Z,1006.64
2018-12-19T02:08:03.222Z,1006.60
2018-12-19T02:09:03.213Z,1006.57
2018-12-19T02:10:03.229Z,1006.60
2018-12-19T02:11:03.191Z,1006.56
2018-12-19T02:12:03.208Z,1006.55
2018-12-19T02:13:03.231Z,1006.59
2018-12-19T02:14:03.154Z,1006.59
2018-12-19T02:15:03.146Z,1006.63
2018-12-19T02:16:03.159Z,1006.64
2018-12-19T02:17:03.128Z,1006.69
2018-12-19T02:18:03.136Z,1006.65
2018-12-19T02:19:03.143Z,1006.74
2018-12-19T02:20:03.090Z,1006.72
2018-12-19T02:21:03.090Z,1006.66
2018-12-19T02:22:03.084Z,1006.71
2018-12-19T02:23:03.079Z,1006.65
2018-12-19T02:24:03.048Z,1006.71
2018-12-19T02:25:03.039Z,1006.78
2018-12-19T02:26:03.020Z,1006.81
2018-12-19T02:27:03.045Z,1006.77
2018-12-19T02:28:03.012Z,1006.75
2018-12-19T02:29:02.993Z,1006.83
2018-12-19T02:30:02.977Z,1006.81
2018-12-19T02:31:02.991Z,1006.78
2018-12-19T02:32:03.004Z,1006.76
2018-12-19T02:33:02.945Z,1006.71
2018-12-19T02:34:02.978Z,1006.71
2018-12-19T02:35:02.950Z,1006.58
2018-12-19T02:36:02.921Z,1006.65
2018-12-19T02:37:02.935Z,1006.58
2018-12-19T02:38:02.942Z,1006.60
2018-12-19T02:39:02.886Z,1006.56
2018-12-19T02:40:02.878Z,1006.50
2018-12-19T02:41:02.859Z,1006.54
2018-12-19T02:42:02.844Z,1006.54
2018-12-19T02:43:02.873Z,1006.45
2018-12-19T02:44:02.844Z,1006.48
2018-12-19T02:45:02.848Z,1006.46
2018-12-19T02:46:02.802Z,1006.38
2018-12-19T02:47:02.801Z,1006.38
2018-12-19T02:48:02.834Z,1006.36
2018-12-19T02:49:02.775Z,1006.34
2018-12-19T02:50:02.769Z,1006.37
2018-12-19T02:51:02.750Z,1006.30
2018-12-19T02:52:02.749Z,1006.32
2018-12-19T02:53:02.753Z,1006.32
2018-12-19T02:54:02.796Z,1006.32
2018-12-19T02:55:02.710Z,1006.28
2018-12-19T02:56:02.701Z,1006.25
2018-12-19T02:57:02.686Z,1006.26
2018-12-19T02:58:02.684Z,1006.26
2018-12-19T02:59:02.685Z,1006.27
2018-12-19T03:00:02.719Z,1006.27
2018-12-19T03:01:02.642Z,1006.23
2018-12-19T03:02:02.635Z,1006.24
2018-12-19T03:03:02.614Z,1006.19
2018-12-19T03:04:02.631Z,1006.16
2018-12-19T03:05:02.593Z,1006.21
2018-12-19T03:06:02.589Z,1006.21
2018-12-19T03:07:02.587Z,1006.27
2018-12-19T03:08:02.584Z,1006.26
2018-12-19T03:09:02.606Z,1006.23
2018-12-19T03:10:02.623Z,1006.27
2018-12-19T03:11:02.598Z,1006.25
2018-12-19T03:12:02.520Z,1006.27
2018-12-19T03:13:02.517Z,1006.20
2018-12-19T03:14:02.534Z,1006.25
2018-12-19T03:15:02.528Z,1006.25
2018-12-19T03:16:02.483Z,1006.22
2018-12-19T03:17:02.485Z,1006.12
2018-12-19T03:18:02.454Z,1006.14
2018-12-19T03:19:02.457Z,1006.16
2018-12-19T03:20:02.455Z,1006.16
2018-12-19T03:21:02.471Z,1006.07
2018-12-19T03:22:02.414Z,1006.01
2018-12-19T03:23:02.445Z,1006.06
2018-12-19T03:24:02.409Z,1006.09
2018-12-19T03:25:02.407Z,1006.04
2018-12-19T03:26:02.366Z,1006.05
2018-12-19T03:27:02.387Z,1006.00
2018-12-19T03:28:02.356Z,1006.03
2018-12-19T03:29:02.346Z,1006.02
2018-12-19T03:30:02.420Z,1006.00
2018-12-19T03:31:02.427Z,1006.00
2018-12-19T03:32:02.296Z,1006.00
2018-12-19T03:33:02.294Z,1005.99
2018-12-19T03:34:02.276Z,1005.99
2018-12-19T03:35:02.328Z,1006.02
2018-12-19T03:36:02.279Z,1006.01
2018-12-19T03:37:02.239Z,1006.05
2018-12-19T03:38:02.242Z,1005.98
2018-12-19T03:39:02.225Z,1005.99
2018-12-19T03:40:02.260Z,1006.04
2018-12-19T03:41:02.250Z,1006.03
2018-12-19T03:42:02.196Z,1006.01
2018-12-19T03:43:02.249Z,1006.01
2018-12-19T03:44:02.188Z,1005.91
2018-12-19T03:45:02.152Z,1005.85
2018-12-19T03:46:02.147Z,1005.81
2018-12-19T03:47:02.198Z,1005.82
2018-12-19T03:48:02.139Z,1005.85
2018-12-19T03:49:02.137Z,1005.86
2018-12-19T03:50:02.096Z,1005.87
2018-12-19T03:51:02.092Z,1005.82
2018-12-19T03:52:02.092Z,1005.80
2018-12-19T03:53:02.185Z,1005.77
2018-12-19T03:54:02.071Z,1005.76
2018-12-19T03:55:02.046Z,1005.71
2018-12-19T03:56:02.037Z,1005.69
2018-12-19T03:57:02.047Z,1005.60
2018-12-19T03:58:02.053Z,1005.63
2018-12-19T03:59:02.007Z,1005.57
2018-12-19T04:00:02.030Z,1005.54
2018-12-19T04:01:01.976Z,1005.51
2018-12-19T04:02:01.972Z,1005.53
2018-12-19T04:03:01.986Z,1005.55
2018-12-19T04:04:01.952Z,1005.51
2018-12-19T04:05:01.938Z,1005.53
2018-12-19T04:06:01.936Z,1005.57
2018-12-19T04:07:01.934Z,1005.52
2018-12-19T04:08:01.904Z,1005.53
2018-12-19T04:09:01.917Z,1005.49
2018-12-19T04:10:01.912Z,1005.55
2018-12-19T04:11:01.868Z,1005.55
2018-12-19T04:12:01.876Z,1005.57
2018-12-19T04:13:01.970Z,1005.59
2018-12-19T04:14:01.932Z,1005.57
2018-12-19T04:15:01.830Z,1005.55
2018-12-19T04:16:01.851Z,1005.50
2018-12-19T04:17:01.819Z,1005.50
2018-12-19T04:18:01.859Z,1005.52
2018-12-19T04:19:01.828Z,1005.53
2018-12-19T04:20:01.823Z,1005.52
2018-12-19T04:21:01.765Z,1005.47
2018-12-19T04:22:01.748Z,1005.44
2018-12-19T04:23:01.746Z,1005.43
2018-12-19T04:24:01.734Z,1005.40
2018-12-19T04:25:01.713Z,1005.43
2018-12-19T04:26:01.729Z,1005.44
2018-12-19T04:27:01.743Z,1005.44
2018-12-19T04:28:01.686Z,1005.40
2018-12-19T04:29:01.671Z,1005.43
2018-12-19T04:30:01.692Z,1005.42
2018-12-19T04:31:01.701Z,1005.43
2018-12-19T04:32:01.641Z,1005.46
2018-12-19T04:33:01.626Z,1005.27
2018-12-19T04:34:01.617Z,1005.28
2018-12-19T04:35:01.614Z,1005.32
2018-12-19T04:36:01.605Z,1005.32
2018-12-19T04:37:01.645Z,1005.43
2018-12-19T04:38:01.590Z,1005.46
2018-12-19T04:39:01.560Z,1005.51
2018-12-19T04:40:05.448Z,1005.54
2018-12-19T04:41:01.546Z,1005.58
2018-12-19T04:42:01.526Z,1005.54
2018-12-19T04:43:01.567Z,1005.51
2018-12-19T04:44:01.508Z,1005.49
2018-12-19T04:45:01.499Z,1005.47
2018-12-19T04:46:01.500Z,1005.50
2018-12-19T04:47:01.520Z,1005.60
2018-12-19T04:48:01.489Z,1005.52
2018-12-19T04:49:01.474Z,1005.47
2018-12-19T04:50:01.484Z,1005.52
2018-12-19T04:51:01.440Z,1005.54
2018-12-19T04:52:01.423Z,1005.61
2018-12-19T04:53:01.495Z,1005.64
2018-12-19T04:54:01.399Z,1005.70
2018-12-19T04:55:01.411Z,1005.69
2018-12-19T04:56:01.400Z,1005.64
2018-12-19T04:57:01.388Z,1005.67
2018-12-19T04:58:01.398Z,1005.66
2018-12-19T04:59:01.456Z,1005.69
2018-12-19T05:00:01.370Z,1005.76
2018-12-19T05:01:01.344Z,1005.74
2018-12-19T05:02:01.311Z,1005.85
2018-12-19T05:03:01.324Z,1005.82
2018-12-19T05:04:01.413Z,1005.75
2018-12-19T05:05:01.646Z,1005.73
2018-12-19T05:06:01.509Z,1005.75
2018-12-19T05:07:01.255Z,1005.76
2018-12-19T05:08:01.255Z,1005.73
2018-12-19T05:09:01.279Z,1005.76
2018-12-19T05:10:01.259Z,1005.81
2018-12-19T05:11:01.212Z,1005.81
2018-12-19T05:12:01.213Z,1005.85
2018-12-19T05:13:01.397Z,1005.81
2018-12-19T05:14:01.178Z,1005.85
2018-12-19T05:15:01.273Z,1005.78
2018-12-19T05:16:01.182Z,1005.78
2018-12-19T05:17:01.173Z,1005.69
2018-12-19T05:18:01.267Z,1005.65
2018-12-19T05:19:01.126Z,1005.61
2018-12-19T05:20:01.153Z,1005.59
2018-12-19T05:21:01.129Z,1005.59
2018-12-19T05:22:01.089Z,1005.66
2018-12-19T05:23:01.100Z,1005.70
2018-12-19T05:24:01.069Z,1005.69
2018-12-19T05:25:01.102Z,1005.80
2018-12-19T05:26:01.106Z,1005.86
2018-12-19T05:27:01.039Z,1005.90
2018-12-19T05:28:01.024Z,1005.95
2018-12-19T05:29:01.022Z,1005.95
2018-12-19T05:30:01.071Z,1005.96
2018-12-19T05:31:01.016Z,1005.92
2018-12-19T05:32:00.979Z,1005.95
2018-12-19T05:33:00.979Z,1005.96
2018-12-19T05:34:01.020Z,1005.99
2018-12-19T05:35:01.002Z,1006.02
2018-12-19T05:36:01.025Z,1005.97
2018-12-19T05:37:00.967Z,1006.00
2018-12-19T05:38:00.934Z,1006.01
2018-12-19T05:39:00.921Z,1006.02
2018-12-19T05:40:00.896Z,1006.02
2018-12-19T05:41:00.942Z,1006.05
2018-12-19T05:42:00.901Z,1006.07
2018-12-19T05:43:00.865Z,1006.13
2018-12-19T05:44:00.854Z,1006.06
2018-12-19T05:45:00.845Z,1006.07
2018-12-19T05:46:00.867Z,1006.03
2018-12-19T05:47:00.818Z,1006.02
2018-12-19T05:48:00.904Z,1006.06
2018-12-19T05:49:00.822Z,1005.99
2018-12-19T05:50:00.788Z,1006.01
2018-12-19T05:51:00.836Z,1006.07
2018-12-19T05:52:00.894Z,1006.02
2018-12-19T05:53:00.755Z,1006.02
2018-12-19T05:54:00.762Z,1005.93
2018-12-19T05:55:00.851Z,1005.93
2018-12-19T05:56:00.723Z,1005.96
2018-12-19T05:57:00.729Z,1005.98
2018-12-19T05:58:00.759Z,1005.99
2018-12-19T05:59:00.696Z,1005.98
2018-12-19T06:00:00.693Z,1005.97
2018-12-19T06:01:00.669Z,1006.00
2018-12-19T06:02:00.699Z,1006.01
2018-12-19T06:03:00.674Z,1006.07
2018-12-19T06:04:00.700Z,1006.04
2018-12-19T06:05:00.629Z,1006.03
2018-12-19T06:06:00.615Z,1006.03
2018-12-19T06:07:00.691Z,1005.99
2018-12-19T06:08:00.618Z,1005.99
2018-12-19T06:09:00.586Z,1006.05
2018-12-19T06:10:00.650Z,1006.14
2018-12-19T06:11:00.566Z,1006.17
2018-12-19T06:12:00.564Z,1006.17
2018-12-19T06:13:00.570Z,1006.25
2018-12-19T06:14:00.543Z,1006.28
2018-12-19T06:15:00.528Z,1006.17
2018-12-19T06:16:00.505Z,1006.20
2018-12-19T06:17:00.496Z,1006.28
2018-12-19T06:18:00.524Z,1006.30
2018-12-19T06:19:00.488Z,1006.33
2018-12-19T06:20:00.464Z,1006.34
2018-12-19T06:21:00.455Z,1006.30
2018-12-19T06:22:00.477Z,1006.28
2018-12-19T06:23:00.432Z,1006.30
2018-12-19T06:24:00.452Z,1006.23
2018-12-19T06:25:00.419Z,1006.26
2018-12-19T06:26:00.401Z,1006.29
2018-12-19T06:27:00.465Z,1006.26
2018-12-19T06:28:00.382Z,1006.28
2018-12-19T06:29:00.364Z,1006.31
2018-12-19T06:30:00.395Z,1006.24
2018-12-19T06:31:00.344Z,1006.31
2018-12-19T06:32:00.426Z,1006.27
2018-12-19T06:33:00.342Z,1006.27
2018-12-19T06:34:00.325Z,1006.29
2018-12-19T06:35:00.324Z,1006.29
2018-12-19T06:36:00.325Z,1006.32
2018-12-19T06:37:00.280Z,1006.29
2018-12-19T06:38:00.283Z,1006.27
2018-12-19T06:39:00.264Z,1006.24
2018-12-19T06:40:00.279Z,1006.27
2018-12-19T06:41:00.264Z,1006.23
2018-12-19T06:42:00.270Z,1006.21
2018-12-19T06:43:00.215Z,1006.23
2018-12-19T06:44:00.211Z,1006.21
2018-12-19T06:45:00.196Z,1006.19
2018-12-19T06:46:00.205Z,1006.25
2018-12-19T06:47:00.215Z,1006.24
2018-12-19T06:48:00.232Z,1006.26
2018-12-19T06:49:00.157Z,1006.24
2018-12-19T06:50:00.149Z,1006.19
2018-12-19T06:51:00.199Z,1006.22
2018-12-19T06:52:01.711Z,1006.20
2018-12-19T06:53:00.110Z,1006.24
2018-12-19T06:54:00.139Z,1006.24
2018-12-19T06:55:00.177Z,1006.25
2018-12-19T06:56:00.127Z,1006.23
2018-12-19T06:57:00.092Z,1006.25
2018-12-19T06:58:00.059Z,1006.25
2018-12-19T06:59:00.054Z,1006.27
2018-12-19T07:00:00.089Z,1006.26
2018-12-19T07:01:00.024Z,1006.27
2018-12-19T07:02:00.056Z,1006.29
2018-12-19T07:03:00.004Z,1006.27
2018-12-19T07:03:59.989Z,1006.33
2018-12-19T07:05:00.062Z,1006.35
2018-12-19T07:06:00.065Z,1006.33
2018-12-19T07:06:59.960Z,1006.34
2018-12-19T07:07:59.990Z,1006.35
2018-12-19T07:08:59.937Z,1006.37
2018-12-19T07:09:59.953Z,1006.41
2018-12-19T07:10:59.913Z,1006.41
2018-12-19T07:11:59.937Z,1006.35
2018-12-19T07:12:59.907Z,1006.41
2018-12-19T07:13:59.881Z,1006.38
2018-12-19T07:14:59.878Z,1006.39
2018-12-19T07:15:59.879Z,1006.40
2018-12-19T07:16:59.859Z,1006.41
2018-12-19T07:17:59.924Z,1006.39
2018-12-19T07:18:59.851Z,1006.42
2018-12-19T07:19:59.826Z,1006.49
2018-12-19T07:20:59.843Z,1006.49
2018-12-19T07:21:59.902Z,1006.50
2018-12-19T07:22:59.785Z,1006.48
2018-12-19T07:23:59.814Z,1006.49
2018-12-19T07:24:59.824Z,1006.57
2018-12-19T07:25:59.755Z,1006.58
2018-12-19T07:26:59.773Z,1006.55
2018-12-19T07:27:59.748Z,1006.55
2018-12-19T07:28:59.731Z,1006.54
2018-12-19T07:29:59.744Z,1006.57
2018-12-19T07:30:59.721Z,1006.59
2018-12-19T07:31:59.727Z,1006.58
2018-12-19T07:32:59.678Z,1006.60
2018-12-19T07:33:59.669Z,1006.55
2018-12-19T07:34:59.671Z,1006.55
2018-12-19T07:35:59.674Z,1006.62
2018-12-19T07:36:59.652Z,1006.59
2018-12-19T07:37:59.644Z,1006.62
2018-12-19T07:38:59.611Z,1006.64
2018-12-19T07:39:59.600Z,1006.65
2018-12-19T07:40:59.646Z,1006.65
2018-12-19T07:41:59.578Z,1006.68
2018-12-19T07:42:59.585Z,1006.68
2018-12-19T07:43:59.573Z,1006.70
2018-12-19T07:44:59.555Z,1006.69
2018-12-19T07:45:59.536Z,1006.74
2018-12-19T07:46:59.561Z,1006.81
2018-12-19T07:47:59.521Z,1006.79
2018-12-19T07:48:59.516Z,1006.82
2018-12-19T07:49:59.494Z,1006.82
2018-12-19T07:50:59.485Z,1006.81
2018-12-19T07:51:59.474Z,1006.78
2018-12-19T07:52:59.488Z,1006.78
2018-12-19T07:53:59.496Z,1006.76
2018-12-19T07:54:59.442Z,1006.75
2018-12-19T07:55:59.435Z,1006.71
2018-12-19T07:56:59.420Z,1006.81
2018-12-19T07:57:59.464Z,1006.82
2018-12-19T07:58:59.407Z,1006.85
2018-12-19T07:59:59.391Z,1006.86
2018-12-19T08:00:59.377Z,1006.78
2018-12-19T08:01:59.409Z,1006.79
2018-12-19T08:02:59.356Z,1006.85
2018-12-19T08:03:59.399Z,1006.84
2018-12-19T08:04:59.332Z,1006.84
2018-12-19T08:05:59.334Z,1006.84
2018-12-19T08:06:59.382Z,1006.89
2018-12-19T08:07:59.321Z,1006.86
2018-12-19T08:08:59.301Z,1006.86
2018-12-19T08:09:59.311Z,1006.86
2018-12-19T08:10:59.274Z,1006.84
2018-12-19T08:11:59.266Z,1006.85
2018-12-19T08:12:59.252Z,1006.89
2018-12-19T08:13:59.260Z,1006.92
2018-12-19T08:14:59.239Z,1006.92
2018-12-19T08:15:59.253Z,1006.99
2018-12-19T08:16:59.229Z,1006.98
2018-12-19T08:17:59.194Z,1006.95
2018-12-19T08:18:59.193Z,1006.99
2018-12-19T08:19:59.203Z,1006.98
2018-12-19T08:20:59.163Z,1006.93
2018-12-19T08:21:59.192Z,1006.90
2018-12-19T08:22:59.179Z,1006.88
2018-12-19T08:23:59.130Z,1006.94
2018-12-19T08:24:59.209Z,1006.89
2018-12-19T08:25:59.111Z,1006.91
2018-12-19T08:26:59.098Z,1006.91
2018-12-19T08:27:59.118Z,1006.92
2018-12-19T08:28:59.083Z,1007.00
2018-12-19T08:29:59.069Z,1006.98
2018-12-19T08:30:59.054Z,1006.97
2018-12-19T08:31:59.102Z,1006.98
2018-12-19T08:32:59.031Z,1006.97
2018-12-19T08:33:59.047Z,1006.99
2018-12-19T08:34:59.013Z,1007.02
2018-12-19T08:35:59.001Z,1007.00
2018-12-19T08:36:59.005Z,1007.03
2018-12-19T08:37:58.984Z,1007.03
2018-12-19T08:38:59.016Z,1007.03
2018-12-19T08:39:58.961Z,1007.08
2018-12-19T08:40:59.149Z,1007.09
2018-12-19T08:41:58.955Z,1007.06
2018-12-19T08:42:58.930Z,1007.08
2018-12-19T08:43:58.940Z,1007.13
2018-12-19T08:44:58.919Z,1007.08
2018-12-19T08:45:58.897Z,1007.05
2018-12-19T08:46:58.881Z,1007.05
2018-12-19T08:47:58.907Z,1007.12
2018-12-19T08:48:58.898Z,1007.15
2018-12-19T08:49:58.904Z,1007.15
2018-12-19T08:50:58.835Z,1007.16
2018-12-19T08:51:58.827Z,1007.11
2018-12-19T08:52:58.817Z,1007.10
2018-12-19T08:53:58.815Z,1007.08
2018-12-19T08:54:58.830Z,1007.09
2018-12-19T08:55:58.784Z,1007.12
2018-12-19T08:56:58.797Z,1007.11
2018-12-19T08:57:58.779Z,1007.12
2018-12-19T08:58:58.754Z,1007.11
2018-12-19T08:59:58.748Z,1007.09
2018-12-19T09:00:58.761Z,1007.16
2018-12-19T09:01:58.725Z,1007.16
2018-12-19T09:02:58.727Z,1007.16
2018-12-19T09:03:58.701Z,1007.15
2018-12-19T09:04:58.701Z,1007.15
2018-12-19T09:05:58.697Z,1007.18
2018-12-19T09:06:58.717Z,1007.14
2018-12-19T09:07:58.655Z,1007.16
2018-12-19T09:08:58.651Z,1007.15
2018-12-19T09:09:58.644Z,1007.19
2018-12-19T09:10:58.626Z,1007.23
2018-12-19T09:11:58.620Z,1007.18
2018-12-19T09:12:58.633Z,1007.25
2018-12-19T09:13:58.599Z,1007.28
2018-12-19T09:14:58.591Z,1007.30
2018-12-19T09:15:58.566Z,1007.30
2018-12-19T09:16:58.560Z,1007.26
2018-12-19T09:17:58.566Z,1007.23
2018-12-19T09:18:58.596Z,1007.29
2018-12-19T09:19:58.522Z,1007.26
2018-12-19T09:20:58.534Z,1007.32
2018-12-19T09:21:58.513Z,1007.29
2018-12-19T09:22:58.504Z,1007.34
2018-12-19T09:23:58.506Z,1007.35
2018-12-19T09:24:58.471Z,1007.31
2018-12-19T09:25:58.548Z,1007.43
2018-12-19T09:26:58.446Z,1007.41
2018-12-19T09:27:58.461Z,1007.44
2018-12-19T09:28:58.459Z,1007.42
2018-12-19T09:29:58.418Z,1007.44
2018-12-19T09:30:58.449Z,1007.40
2018-12-19T09:31:58.391Z,1007.46
2018-12-19T09:32:58.380Z,1007.42
2018-12-19T09:33:58.400Z,1007.39
2018-12-19T09:34:58.427Z,1007.43
2018-12-19T09:35:58.391Z,1007.38
2018-12-19T09:36:58.336Z,1007.40
2018-12-19T09:37:58.362Z,1007.42
2018-12-19T09:38:58.348Z,1007.42
2018-12-19T09:39:58.330Z,1007.39
2018-12-19T09:40:58.341Z,1007.46
2018-12-19T09:41:58.302Z,1007.40
2018-12-19T09:42:58.312Z,1007.41
2018-12-19T09:43:58.276Z,1007.46
2018-12-19T09:44:58.290Z,1007.44
2018-12-19T09:45:58.239Z,1007.50
2018-12-19T09:46:58.284Z,1007.53
2018-12-19T09:47:58.247Z,1007.46
2018-12-19T09:48:58.219Z,1007.49
2018-12-19T09:49:58.228Z,1007.51
2018-12-19T09:50:58.187Z,1007.49
2018-12-19T09:51:58.182Z,1007.50
2018-12-19T09:52:58.212Z,1007.46
2018-12-19T09:53:58.154Z,1007.47
2018-12-19T09:54:58.144Z,1007.45
2018-12-19T09:55:58.147Z,1007.43
2018-12-19T09:56:58.138Z,1007.44
2018-12-19T09:57:58.128Z,1007.43
2018-12-19T09:58:58.153Z,1007.48
2018-12-19T09:59:58.101Z,1007.46
2018-12-19T10:00:58.877Z,1007.49
2018-12-19T10:01:58.074Z,1007.43
2018-12-19T10:02:58.058Z,1007.41
2018-12-19T10:03:58.789Z,1007.44
2018-12-19T10:04:58.074Z,1007.46
2018-12-19T10:05:58.062Z,1007.37
2018-12-19T10:06:58.013Z,1007.38
2018-12-19T10:07:58.005Z,1007.38
2018-12-19T10:08:58.054Z,1007.37
2018-12-19T10:09:58.019Z,1007.31
2018-12-19T10:10:57.975Z,1007.33
2018-12-19T10:11:58.043Z,1007.36
2018-12-19T10:12:57.976Z,1007.33
2018-12-19T10:13:57.976Z,1007.34
2018-12-19T10:14:57.933Z,1007.30
2018-12-19T10:15:57.937Z,1007.30
2018-12-19T10:16:57.911Z,1007.29
2018-12-19T10:17:57.907Z,1007.27
2018-12-19T10:18:57.900Z,1007.26
2018-12-19T10:19:57.901Z,1007.28
2018-12-19T10:20:57.873Z,1007.31
2018-12-19T10:21:57.860Z,1007.29
2018-12-19T10:22:57.868Z,1007.28
2018-12-19T10:23:57.841Z,1007.29
2018-12-19T10:24:57.869Z,1007.27
2018-12-19T10:25:57.812Z,1007.31
2018-12-19T10:26:57.800Z,1007.27
2018-12-19T10:27:57.793Z,1007.33
2018-12-19T10:28:57.777Z,1007.39
2018-12-19T10:29:57.802Z,1007.28
2018-12-19T10:30:57.757Z,1007.27
2018-12-19T10:31:57.803Z,1007.28
2018-12-19T10:32:57.748Z,1007.21
2018-12-19T10:33:57.724Z,1007.24
2018-12-19T10:34:57.712Z,1007.19
2018-12-19T10:35:57.735Z,1007.17
2018-12-19T10:36:57.693Z,1007.18
2018-12-19T10:37:57.690Z,1007.15
2018-12-19T10:38:57.670Z,1007.12
2018-12-19T10:39:57.697Z,1007.11
2018-12-19T10:40:57.672Z,1007.14
2018-12-19T10:41:57.676Z,1007.11
2018-12-19T10:42:57.625Z,1007.13
2018-12-19T10:43:57.626Z,1007.12
2018-12-19T10:44:57.611Z,1007.14
2018-12-19T10:45:57.600Z,1007.13
2018-12-19T10:46:57.606Z,1007.10
2018-12-19T10:47:57.618Z,1007.18
2018-12-19T10:48:57.565Z,1007.15
2018-12-19T10:49:57.588Z,1007.09
2018-12-19T10:50:57.540Z,1007.05
2018-12-19T10:51:57.531Z,1007.02
2018-12-19T10:52:57.535Z,1006.99
2018-12-19T10:53:57.548Z,1006.92
2018-12-19T10:54:57.539Z,1006.94
2018-12-19T10:55:57.498Z,1006.90
2018-12-19T10:56:57.532Z,1006.91
2018-12-19T10:57:57.464Z,1006.93
2018-12-19T10:58:57.475Z,1006.89
2018-12-19T10:59:57.486Z,1006.90
2018-12-19T11:00:57.493Z,1006.90
2018-12-19T11:01:57.448Z,1006.96
2018-12-19T11:02:57.464Z,1006.92
2018-12-19T11:03:57.404Z,1006.92
2018-12-19T11:04:57.394Z,1006.97
2018-12-19T11:05:57.437Z,1006.93
2018-12-19T11:06:57.370Z,1006.89
2018-12-19T11:07:57.408Z,1006.98
2018-12-19T11:08:57.393Z,1006.94
2018-12-19T11:09:57.337Z,1006.99
2018-12-19T11:10:57.325Z,1007.01
2018-12-19T11:11:57.344Z,1006.98
2018-12-19T11:12:57.313Z,1006.96
2018-12-19T11:13:57.316Z,1006.97
2018-12-19T11:14:57.351Z,1006.99
2018-12-19T11:15:57.281Z,1006.99
2018-12-19T11:16:57.294Z,1006.93
2018-12-19T11:17:57.280Z,1006.97
2018-12-19T11:18:57.260Z,1006.93
2018-12-19T11:19:57.232Z,1006.94
2018-12-19T11:20:57.220Z,1006.94
2018-12-19T11:21:57.209Z,1006.94
2018-12-19T11:22:57.271Z,1006.93
2018-12-19T11:23:57.195Z,1006.90
2018-12-19T11:24:57.190Z,1006.90
2018-12-19T11:25:57.165Z,1006.91
2018-12-19T11:26:57.160Z,1006.92
2018-12-19T11:27:57.205Z,1006.89
2018-12-19T11:28:57.182Z,1006.84
2018-12-19T11:29:57.150Z,1006.85
2018-12-19T11:30:57.127Z,1006.87
2018-12-19T11:31:57.101Z,1006.86
2018-12-19T11:32:57.094Z,1006.87
2018-12-19T11:33:57.089Z,1006.84
2018-12-19T11:34:57.107Z,1006.81
2018-12-19T11:35:57.070Z,1006.75
2018-12-19T11:36:57.049Z,1006.73
2018-12-19T11:37:57.046Z,1006.71
2018-12-19T11:38:57.026Z,1006.71
2018-12-19T11:39:57.029Z,1006.68
2018-12-19T11:40:57.084Z,1006.66
2018-12-19T11:41:56.996Z,1006.67
2018-12-19T11:42:56.982Z,1006.63
2018-12-19T11:43:56.983Z,1006.64
2018-12-19T11:44:56.979Z,1006.59
2018-12-19T11:45:56.949Z,1006.62
2018-12-19T11:46:56.979Z,1006.62
2018-12-19T11:47:56.933Z,1006.62
2018-12-19T11:48:56.931Z,1006.61
2018-12-19T11:49:56.942Z,1006.64
2018-12-19T11:50:56.895Z,1006.64
2018-12-19T11:51:56.889Z,1006.66
2018-12-19T11:52:56.926Z,1006.58
2018-12-19T11:53:56.874Z,1006.62
2018-12-19T11:54:56.856Z,1006.62
2018-12-19T11:55:56.875Z,1006.63
2018-12-19T11:56:56.851Z,1006.62
2018-12-19T11:57:56.851Z,1006.67
2018-12-19T11:58:56.840Z,1006.63
2018-12-19T11:59:56.796Z,1006.67
2018-12-19T12:00:56.855Z,1006.64
2018-12-19T12:01:56.775Z,1006.63
2018-12-19T12:02:56.834Z,1006.65
2018-12-19T12:03:56.793Z,1006.61
2018-12-19T12:04:56.795Z,1006.66